Time;durP1;ratioP1;P1;durP2;ratioP2;P2;SDS_P1;SDS_P2;PMS_P1;PMS_P2;Temp;Humidity;BMP_temperature;BMP_pressure;BME280_temperature;BME280_humidity;BME280_pressure;Samples;Min_cycle;Max_cycle;Signal;HPM_P1;HPM_P2
2021/07/31 05:00:59;;;;;;;8.50;6.87;;;;;;;;;;5795419;23;20267;-74
2021/07/31 05:03:44;;;;;;;7.70;6.40;;;;;;;;;;4975182;28;20200;-74
2021/07/31 05:06:29;;;;;;;8.67;6.73;;;;;;;;;;4974403;28;20204;-73
2021/07/31 05:09:15;;;;;;;9.10;6.57;;;;;;;;;;4975028;28;20216;-75
2021/07/31 05:12:00;;;;;;;9.57;6.73;;;;;;;;;;4988255;28;20371;-74
2021/07/31 05:14:45;;;;;;;8.47;7.30;;;;;;;;;;4999423;23;20240;-71
2021/07/31 05:17:31;;;;;;;8.73;7.93;;;;;;;;;;4954103;29;20424;-72
2021/07/31 05:20:16;;;;;;;8.53;6.67;;;;;;;;;;4955662;29;20681;-72
2021/07/31 05:23:01;;;;;;;7.63;6.27;;;;;;;;;;4955542;29;20322;-71
2021/07/31 05:25:46;;;;;;;6.80;6.10;;;;;;;;;;4968132;28;20690;-69
2021/07/31 05:28:31;;;;;;;6.37;5.63;;;;;;;;;;4975183;28;20754;-72
2021/07/31 05:31:20;;;;;;;8.77;6.00;;;;;;;;;;4974662;28;20216;-72
2021/07/31 05:34:06;;;;;;;6.83;6.13;;;;;;;;;;4974608;28;20596;-72
2021/07/31 05:36:51;;;;;;;8.03;5.97;;;;;;;;;;4973873;28;20294;-72
2021/07/31 05:39:36;;;;;;;8.00;7.20;;;;;;;;;;4973279;28;20537;-72
2021/07/31 05:42:21;;;;;;;7.80;6.47;;;;;;;;;;4974669;28;20427;-72
2021/07/31 05:45:07;;;;;;;8.77;7.10;;;;;;;;;;4974404;28;20251;-72
2021/07/31 05:47:52;;;;;;;10.23;7.10;;;;;;;;;;4973761;28;20211;-72
2021/07/31 05:50:38;;;;;;;10.23;7.53;;;;;;;;;;4974343;28;20277;-72
2021/07/31 05:53:24;;;;;;;8.53;7.13;;;;;;;;;;4974151;28;20232;-72
2021/07/31 05:56:09;;;;;;;8.63;6.60;;;;;;;;;;4973550;28;20234;-72
2021/07/31 05:58:54;;;;;;;8.00;6.80;;;;;;;;;;4973977;28;20203;-72
2021/07/31 06:01:39;;;;;;;9.13;7.07;;;;;;;;;;4974052;28;20699;-72
2021/07/31 06:04:24;;;;;;;8.60;7.17;;;;;;;;;;4974088;28;20204;-72
2021/07/31 06:07:11;;;;;;;7.93;7.00;;;;;;;;;;4973050;28;20212;-72
2021/07/31 06:09:56;;;;;;;9.83;7.40;;;;;;;;;;4973971;28;20211;-72
2021/07/31 06:12:41;;;;;;;8.63;6.63;;;;;;;;;;4973881;28;20216;-72
2021/07/31 06:15:26;;;;;;;9.47;6.73;;;;;;;;;;4973709;28;20231;-73
2021/07/31 06:18:10;;;;;;;9.33;6.43;;;;;;;;;;4973404;28;20204;-71
2021/07/31 06:20:55;;;;;;;8.37;6.27;;;;;;;;;;4973778;28;20203;-71
2021/07/31 06:23:42;;;;;;;9.13;6.50;;;;;;;;;;4973789;28;20200;-72
2021/07/31 06:26:26;;;;;;;8.63;6.30;;;;;;;;;;4972679;28;20329;-72
2021/07/31 06:29:11;;;;;;;7.37;6.13;;;;;;;;;;4973831;28;20212;-71
2021/07/31 06:31:56;;;;;;;8.07;6.07;;;;;;;;;;4973647;28;20696;-71
2021/07/31 06:34:41;;;;;;;7.17;6.30;;;;;;;;;;4973168;28;20232;-72
2021/07/31 06:37:26;;;;;;;10.40;6.80;;;;;;;;;;4972873;28;20500;-71
2021/07/31 06:40:12;;;;;;;8.23;6.33;;;;;;;;;;4973175;28;20789;-72
2021/07/31 06:42:58;;;;;;;9.30;6.77;;;;;;;;;;4973517;28;20284;-71
2021/07/31 06:45:42;;;;;;;7.57;6.23;;;;;;;;;;4973239;28;20301;-71
2021/07/31 06:48:27;;;;;;;10.73;6.70;;;;;;;;;;4973306;28;20307;-72
2021/07/31 06:51:12;;;;;;;9.93;6.43;;;;;;;;;;4972320;28;20389;-72
2021/07/31 06:53:59;;;;;;;9.67;6.63;;;;;;;;;;4973073;28;20227;-72
2021/07/31 06:56:46;;;;;;;7.27;6.43;;;;;;;;;;4972568;28;20211;-71
2021/07/31 06:59:31;;;;;;;8.07;6.57;;;;;;;;;;4972624;28;20224;-72
2021/07/31 07:02:16;;;;;;;7.93;6.23;;;;;;;;;;4973237;28;20339;-72
2021/07/31 07:05:01;;;;;;;7.00;6.30;;;;;;;;;;4972886;28;20220;-72
2021/07/31 07:07:46;;;;;;;9.27;6.70;;;;;;;;;;4972232;28;20704;-72
2021/07/31 07:10:31;;;;;;;7.13;6.40;;;;;;;;;;4972892;28;20258;-71
2021/07/31 07:13:17;;;;;;;9.13;6.13;;;;;;;;;;4972728;28;20598;-72
2021/07/31 07:16:03;;;;;;;6.87;6.10;;;;;;;;;;4971817;28;20324;-72
2021/07/31 07:18:48;;;;;;;5.87;5.30;;;;;;;;;;4972864;28;20208;-71
2021/07/31 07:21:33;;;;;;;9.43;6.13;;;;;;;;;;4972708;28;20252;-72
2021/07/31 07:24:18;;;;;;;7.83;5.97;;;;;;;;;;4972717;28;20218;-72
2021/07/31 07:27:03;;;;;;;7.37;6.30;;;;;;;;;;4971730;28;20692;-72
2021/07/31 07:29:50;;;;;;;8.37;5.90;;;;;;;;;;4972579;28;20207;-72
2021/07/31 07:32:34;;;;;;;6.10;5.50;;;;;;;;;;4972625;28;20425;-72
2021/07/31 07:35:20;;;;;;;7.67;5.77;;;;;;;;;;4971940;28;20693;-71
2021/07/31 07:38:04;;;;;;;6.40;5.80;;;;;;;;;;4971989;28;20240;-72
2021/07/31 07:40:49;;;;;;;8.73;5.57;;;;;;;;;;4972403;28;20208;-71
2021/07/31 07:43:34;;;;;;;6.83;5.67;;;;;;;;;;4972146;28;20204;-72
2021/07/31 07:46:21;;;;;;;7.93;5.43;;;;;;;;;;4971530;28;20735;-72
2021/07/31 07:49:06;;;;;;;7.07;6.00;;;;;;;;;;4972567;28;20207;-71
2021/07/31 07:51:51;;;;;;;7.20;6.47;;;;;;;;;;4972160;28;20217;-72
2021/07/31 07:54:35;;;;;;;8.07;7.00;;;;;;;;;;4972017;28;20352;-71
2021/07/31 07:57:20;;;;;;;8.70;7.00;;;;;;;;;;4971416;28;20204;-72
2021/07/31 08:00:06;;;;;;;7.97;7.17;;;;;;;;;;4972067;28;20227;-72
2021/07/31 08:02:53;;;;;;;9.60;8.43;;;;;;;;;;4971815;28;20220;-72
2021/07/31 08:05:38;;;;;;;9.60;8.60;;;;;;;;;;4971593;28;20232;-72
2021/07/31 08:08:23;;;;;;;8.67;7.97;;;;;;;;;;4971879;28;20232;-71
2021/07/31 08:11:09;;;;;;;9.20;8.40;;;;;;;;;;4971769;28;20212;-72
2021/07/31 08:13:54;;;;;;;9.37;8.47;;;;;;;;;;4971834;28;20716;-72
2021/07/31 08:16:39;;;;;;;9.23;7.97;;;;;;;;;;4971186;28;20244;-71
2021/07/31 08:19:26;;;;;;;8.20;7.40;;;;;;;;;;4971803;28;20332;-72
2021/07/31 08:22:11;;;;;;;7.83;7.03;;;;;;;;;;4971639;28;20320;-71
2021/07/31 08:24:56;;;;;;;8.30;7.50;;;;;;;;;;4972047;28;20563;-72
2021/07/31 08:27:41;;;;;;;7.77;6.97;;;;;;;;;;4971156;28;20405;-71
2021/07/31 08:30:26;;;;;;;9.57;7.47;;;;;;;;;;4971785;28;20208;-71
2021/07/31 08:33:11;;;;;;;8.63;6.60;;;;;;;;;;4971723;28;20246;-72
2021/07/31 08:35:59;;;;;;;7.83;7.17;;;;;;;;;;4970998;28;20224;-71
2021/07/31 08:38:44;;;;;;;7.40;6.70;;;;;;;;;;4971809;28;20219;-71
2021/07/31 08:41:29;;;;;;;8.37;7.57;;;;;;;;;;4971650;28;20216;-72
2021/07/31 08:44:14;;;;;;;9.20;7.30;;;;;;;;;;4971890;28;20692;-72
2021/07/31 08:47:02;;;;;;;8.70;7.17;;;;;;;;;;4971077;28;20228;-72
2021/07/31 08:49:47;;;;;;;7.90;6.33;;;;;;;;;;4971757;28;20271;-72
2021/07/31 08:52:33;;;;;;;7.40;6.13;;;;;;;;;;4971376;28;20204;-72
2021/07/31 08:55:19;;;;;;;7.73;6.47;;;;;;;;;;4971318;28;20767;-72
2021/07/31 08:58:04;;;;;;;7.27;6.50;;;;;;;;;;4971107;28;20207;-72
2021/07/31 09:00:49;;;;;;;7.07;6.37;;;;;;;;;;4971679;28;20208;-71
2021/07/31 09:03:43;;;;;;;8.77;7.07;;;;;;;;;;4971474;28;20321;-71
2021/07/31 09:06:29;;;;;;;8.27;6.60;;;;;;;;;;4970797;28;20219;-71
2021/07/31 09:09:23;;;;;;;9.20;6.80;;;;;;;;;;4971438;28;20697;-71
2021/07/31 09:12:09;;;;;;;7.73;6.53;;;;;;;;;;4971440;28;20705;-71
2021/07/31 09:14:54;;;;;;;7.07;6.47;;;;;;;;;;4972336;28;20740;-71
2021/07/31 09:17:39;;;;;;;8.40;6.67;;;;;;;;;;4973980;28;20390;-72
2021/07/31 09:20:23;;;;;;;8.23;6.87;;;;;;;;;;4975304;28;20213;-71
2021/07/31 09:23:08;;;;;;;6.97;6.30;;;;;;;;;;4975017;28;20211;-72
2021/07/31 09:26:01;;;;;;;7.43;6.73;;;;;;;;;;4974149;28;20232;-72
2021/07/31 09:28:47;;;;;;;7.63;6.93;;;;;;;;;;4974836;28;20207;-72
2021/07/31 09:31:32;;;;;;;8.43;7.73;;;;;;;;;;4974711;28;20804;-72
2021/07/31 09:34:29;;;;;;;7.67;7.03;;;;;;;;;;4974610;28;20366;-72
2021/07/31 09:37:17;;;;;;;9.67;7.37;;;;;;;;;;4974013;28;20204;-71
2021/07/31 09:40:04;;;;;;;9.20;8.33;;;;;;;;;;4974749;28;20223;-71
2021/07/31 09:42:50;;;;;;;8.13;7.33;;;;;;;;;;4974753;28;20208;-72
2021/07/31 09:45:35;;;;;;;8.13;6.73;;;;;;;;;;4974351;28;20307;-71
2021/07/31 09:48:20;;;;;;;7.40;6.53;;;;;;;;;;4974630;28;20260;-71
2021/07/31 09:51:05;;;;;;;9.10;8.30;;;;;;;;;;4973157;28;20411;-72
2021/07/31 09:53:50;;;;;;;7.30;6.60;;;;;;;;;;4974599;28;20704;-72
2021/07/31 09:56:39;;;;;;;6.40;5.80;;;;;;;;;;4973867;28;20203;-71
2021/07/31 09:59:26;;;;;;;6.93;6.37;;;;;;;;;;4974380;28;20252;-71
2021/07/31 10:02:15;;;;;;;7.20;6.50;;;;;;;;;;4974603;28;20208;-72
2021/07/31 10:05:00;;;;;;;6.70;6.10;;;;;;;;;;4974131;28;20304;-72
2021/07/31 10:07:44;;;;;;;6.83;6.33;;;;;;;;;;4973691;28;20259;-72
2021/07/31 10:10:30;;;;;;;6.73;6.20;;;;;;;;;;4974398;28;20203;-72
2021/07/31 10:13:15;;;;;;;6.40;5.80;;;;;;;;;;4974284;28;20565;-72
2021/07/31 10:16:02;;;;;;;7.30;6.17;;;;;;;;;;4973100;28;20620;-72
2021/07/31 10:18:57;;;;;;;6.70;5.90;;;;;;;;;;4974280;28;20364;-72
2021/07/31 10:21:49;;;;;;;7.17;5.97;;;;;;;;;;4974005;28;20203;-72
2021/07/31 10:24:49;;;;;;;6.97;6.30;;;;;;;;;;4973697;28;20224;-72
2021/07/31 10:27:34;;;;;;;8.37;7.50;;;;;;;;;;4973241;28;20279;-72
2021/07/31 10:30:30;;;;;;;11.77;8.50;;;;;;;;;;4973774;28;20661;-72
2021/07/31 10:33:30;;;;;;;8.13;7.27;;;;;;;;;;4973859;28;20555;-72
2021/07/31 10:36:29;;;;;;;8.40;7.53;;;;;;;;;;4972645;28;20227;-72
2021/07/31 10:39:28;;;;;;;9.23;7.03;;;;;;;;;;4973843;28;20564;-71
2021/07/31 10:42:14;;;;;;;5.83;5.43;;;;;;;;;;4967485;28;20212;-72
2021/07/31 10:45:18;;;;;;;4.67;4.27;;;;;;;;;;4973731;28;20260;-72
2021/07/31 10:48:03;;;;;;;5.23;4.73;;;;;;;;;;4973196;28;20279;-72
2021/07/31 10:50:49;;;;;;;5.17;3.60;;;;;;;;;;4973757;28;20339;-71
2021/07/31 10:53:49;;;;;;;7.23;4.27;;;;;;;;;;4973624;28;20223;-71
2021/07/31 10:56:56;;;;;;;7.90;4.10;;;;;;;;;;4972921;28;20215;-72
2021/07/31 10:59:41;;;;;;;4.20;3.80;;;;;;;;;;4973348;28;20200;-72
2021/07/31 11:02:33;;;;;;;3.10;2.90;;;;;;;;;;4973594;28;20692;-72
2021/07/31 11:05:18;;;;;;;3.00;2.77;;;;;;;;;;4973075;28;20224;-72
2021/07/31 11:08:03;;;;;;;4.77;3.10;;;;;;;;;;4972665;28;20255;-72
2021/07/31 11:10:50;;;;;;;4.70;3.40;;;;;;;;;;4973165;28;20224;-71
2021/07/31 11:13:52;;;;;;;4.10;3.53;;;;;;;;;;4973186;28;20208;-71
2021/07/31 11:16:37;;;;;;;4.50;3.73;;;;;;;;;;4992197;23;20383;-74
2021/07/31 11:19:31;;;;;;;4.13;3.60;;;;;;;;;;4972793;28;20724;-73
2021/07/31 11:22:16;;;;;;;4.10;3.80;;;;;;;;;;4972493;28;20212;-74
2021/07/31 11:25:02;;;;;;;4.63;4.23;;;;;;;;;;4975724;28;20266;-74
2021/07/31 11:27:56;;;;;;;5.40;4.90;;;;;;;;;;4991977;28;20215;-74
2021/07/31 11:30:43;;;;;;;6.17;5.57;;;;;;;;;;4992043;28;20204;-74
2021/07/31 11:33:28;;;;;;;6.20;5.57;;;;;;;;;;4990494;28;20977;-73
2021/07/31 11:36:13;;;;;;;6.00;5.37;;;;;;;;;;4991094;28;20603;-74
2021/07/31 11:39:01;;;;;;;8.37;5.50;;;;;;;;;;4991333;28;20290;-74
2021/07/31 11:41:45;;;;;;;7.40;5.87;;;;;;;;;;4991772;28;20203;-74
2021/07/31 11:44:32;;;;;;;8.97;6.80;;;;;;;;;;4991838;28;20206;-74
2021/07/31 11:47:28;;;;;;;7.73;7.00;;;;;;;;;;4990799;28;20259;-74
2021/07/31 11:50:14;;;;;;;8.90;8.00;;;;;;;;;;4991641;28;20331;-73
2021/07/31 11:53:19;;;;;;;8.17;7.53;;;;;;;;;;4991636;28;20207;-74
2021/07/31 11:56:11;;;;;;;9.37;7.60;;;;;;;;;;4990718;28;20223;-74
2021/07/31 11:58:57;;;;;;;7.57;6.80;;;;;;;;;;4991032;28;20206;-74
2021/07/31 12:01:48;;;;;;;8.00;7.30;;;;;;;;;;4991358;28;20260;-74
2021/07/31 12:04:43;;;;;;;8.13;6.27;;;;;;;;;;4991456;28;20669;-74
2021/07/31 12:07:28;;;;;;;7.00;6.13;;;;;;;;;;4990672;28;20258;-75
2021/07/31 12:10:13;;;;;;;7.13;6.07;;;;;;;;;;4991094;28;20204;-73
2021/07/31 12:13:08;;;;;;;6.73;6.13;;;;;;;;;;4991332;28;20203;-74
2021/07/31 12:15:53;;;;;;;7.47;6.70;;;;;;;;;;4990364;28;20247;-73
2021/07/31 12:18:51;;;;;;;7.70;6.50;;;;;;;;;;4991289;28;20591;-74
2021/07/31 12:21:36;;;;;;;7.30;6.70;;;;;;;;;;4991228;28;20300;-73
2021/07/31 12:24:21;;;;;;;6.97;6.40;;;;;;;;;;4991218;28;20208;-74
2021/07/31 12:27:05;;;;;;;7.47;6.63;;;;;;;;;;4990481;28;20240;-75
2021/07/31 12:29:50;;;;;;;6.80;6.13;;;;;;;;;;4991209;28;20221;-75
2021/07/31 12:32:44;;;;;;;8.83;7.70;;;;;;;;;;4991249;28;20230;-74
2021/07/31 12:35:37;;;;;;;5.53;4.97;;;;;;;;;;4990963;28;20705;-74
2021/07/31 12:38:23;;;;;;;3.30;3.00;;;;;;;;;;4991372;28;20304;-74
2021/07/31 12:41:09;;;;;;;3.40;3.10;;;;;;;;;;4990913;28;20325;-74
2021/07/31 12:43:54;;;;;;;4.37;3.97;;;;;;;;;;4991141;28;20696;-74
2021/07/31 12:46:39;;;;;;;6.20;4.27;;;;;;;;;;4990248;28;20223;-75
2021/07/31 12:49:24;;;;;;;4.70;4.30;;;;;;;;;;4991417;28;20268;-74
2021/07/31 12:52:10;;;;;;;5.50;4.50;;;;;;;;;;4994804;28;20210;-74
2021/07/31 12:54:55;;;;;;;5.30;4.80;;;;;;;;;;4994884;28;20338;-74
2021/07/31 12:57:40;;;;;;;5.83;5.20;;;;;;;;;;4994019;28;20576;-75
2021/07/31 13:00:25;;;;;;;6.03;5.53;;;;;;;;;;4994763;28;20208;-74
2021/07/31 13:03:10;;;;;;;7.07;5.03;;;;;;;;;;4994820;28;20212;-74
2021/07/31 13:05:55;;;;;;;6.27;5.67;;;;;;;;;;4993909;28;20586;-73
2021/07/31 13:08:41;;;;;;;6.33;5.77;;;;;;;;;;4994479;28;20208;-74
2021/07/31 13:11:26;;;;;;;6.33;5.73;;;;;;;;;;4994348;28;20211;-74
2021/07/31 13:14:11;;;;;;;4.80;4.40;;;;;;;;;;4994527;28;20207;-74
2021/07/31 13:16:56;;;;;;;5.70;4.90;;;;;;;;;;4993344;28;20235;-74
2021/07/31 13:19:41;;;;;;;5.03;3.90;;;;;;;;;;4994675;28;20216;-73
2021/07/31 13:22:26;;;;;;;5.73;3.73;;;;;;;;;;4994522;28;20234;-73
2021/07/31 13:25:13;;;;;;;5.80;5.03;;;;;;;;;;4993835;28;20222;-74
2021/07/31 13:27:58;;;;;;;5.70;4.90;;;;;;;;;;4993671;28;20698;-74
2021/07/31 13:30:44;;;;;;;6.47;5.00;;;;;;;;;;4994329;28;20749;-73
2021/07/31 13:33:29;;;;;;;6.27;5.70;;;;;;;;;;4994094;28;20211;-73
2021/07/31 13:36:14;;;;;;;5.67;5.27;;;;;;;;;;4993340;28;20538;-73
2021/07/31 13:39:01;;;;;;;6.30;5.80;;;;;;;;;;4994053;28;20347;-74
2021/07/31 13:41:48;;;;;;;6.43;5.90;;;;;;;;;;4993881;28;20210;-73
2021/07/31 13:44:33;;;;;;;8.17;6.20;;;;;;;;;;4994042;28;20686;-73
2021/07/31 13:47:18;;;;;;;7.53;6.97;;;;;;;;;;4993475;28;20205;-73
2021/07/31 13:50:03;;;;;;;6.30;5.83;;;;;;;;;;4993773;28;20212;-74
2021/07/31 13:52:48;;;;;;;5.90;5.23;;;;;;;;;;4993841;28;20207;-73
2021/07/31 13:55:33;;;;;;;4.80;4.40;;;;;;;;;;4993410;28;20311;-73
2021/07/31 13:58:19;;;;;;;4.80;4.50;;;;;;;;;;4992973;28;20922;-73
2021/07/31 14:01:04;;;;;;;4.93;4.43;;;;;;;;;;4993171;28;20210;-73
2021/07/31 14:03:49;;;;;;;5.03;4.63;;;;;;;;;;4993541;28;20289;-73
2021/07/31 14:06:34;;;;;;;5.03;4.50;;;;;;;;;;4992786;28;20301;-73
2021/07/31 14:09:19;;;;;;;5.03;4.63;;;;;;;;;;4993178;28;20289;-73
2021/07/31 14:12:05;;;;;;;5.60;5.10;;;;;;;;;;4993378;28;20210;-73
2021/07/31 14:14:51;;;;;;;5.90;5.30;;;;;;;;;;4993030;28;20207;-73
2021/07/31 14:17:36;;;;;;;5.27;4.87;;;;;;;;;;4992642;28;20578;-73
2021/07/31 14:20:21;;;;;;;6.00;5.50;;;;;;;;;;4993281;28;20211;-73
2021/07/31 14:23:06;;;;;;;6.03;5.63;;;;;;;;;;4993301;28;20278;-74
2021/07/31 14:25:51;;;;;;;6.37;5.80;;;;;;;;;;4992387;28;20687;-74
2021/07/31 14:28:36;;;;;;;7.10;6.50;;;;;;;;;;4993198;28;20253;-72
2021/07/31 14:31:22;;;;;;;6.53;6.03;;;;;;;;;;4993044;28;20206;-74
2021/07/31 14:34:07;;;;;;;7.77;6.37;;;;;;;;;;4993110;28;20664;-73
2021/07/31 14:36:52;;;;;;;7.13;6.50;;;;;;;;;;4992016;28;20237;-73
2021/07/31 14:39:38;;;;;;;7.33;6.20;;;;;;;;;;4992863;28;20234;-73
2021/07/31 14:42:23;;;;;;;6.23;5.73;;;;;;;;;;4992861;28;20624;-73
2021/07/31 14:45:08;;;;;;;5.87;5.47;;;;;;;;;;4992868;28;20282;-74
2021/07/31 14:47:55;;;;;;;5.80;5.40;;;;;;;;;;4992232;28;20299;-74
2021/07/31 14:50:41;;;;;;;6.53;5.93;;;;;;;;;;4992760;28;20542;-71
2021/07/31 14:53:26;;;;;;;6.37;5.77;;;;;;;;;;4992585;28;20249;-74
2021/07/31 14:56:15;;;;;;;4.97;4.47;;;;;;;;;;4991719;28;20702;-74
2021/07/31 14:59:01;;;;;;;4.13;3.77;;;;;;;;;;4992553;28;20209;-73
2021/07/31 15:01:45;;;;;;;4.53;4.13;;;;;;;;;;4992498;28;20706;-73
2021/07/31 15:04:32;;;;;;;4.63;4.23;;;;;;;;;;4992226;28;20606;-74
2021/07/31 15:07:17;;;;;;;4.67;4.23;;;;;;;;;;4991710;28;20284;-74
2021/07/31 15:10:02;;;;;;;5.97;4.93;;;;;;;;;;4992429;28;20213;-74
2021/07/31 15:12:48;;;;;;;4.63;4.33;;;;;;;;;;4991695;28;20259;-74
2021/07/31 15:15:33;;;;;;;5.00;4.60;;;;;;;;;;4991913;28;20230;-74
2021/07/31 15:18:18;;;;;;;4.97;4.47;;;;;;;;;;4992259;28;20217;-74
2021/07/31 15:21:08;;;;;;;5.07;4.67;;;;;;;;;;4992290;28;20274;-73
2021/07/31 15:23:52;;;;;;;5.40;4.90;;;;;;;;;;4992129;28;20215;-73
2021/07/31 15:26:37;;;;;;;5.47;5.07;;;;;;;;;;4991546;28;20229;-74
2021/07/31 15:29:22;;;;;;;6.20;5.27;;;;;;;;;;4992161;28;20746;-74
2021/07/31 15:32:07;;;;;;;6.63;5.20;;;;;;;;;;4991969;28;20207;-74
2021/07/31 15:34:52;;;;;;;5.07;4.67;;;;;;;;;;4991842;28;20208;-74
2021/07/31 15:37:38;;;;;;;5.93;5.07;;;;;;;;;;4990853;28;20290;-74
2021/07/31 15:40:24;;;;;;;7.87;4.70;;;;;;;;;;4991868;28;20212;-73
2021/07/31 15:43:08;;;;;;;4.63;4.23;;;;;;;;;;4991596;28;20209;-73
2021/07/31 15:45:55;;;;;;;6.70;4.40;;;;;;;;;;4991003;28;20234;-73
2021/07/31 15:48:40;;;;;;;4.50;4.10;;;;;;;;;;4992517;28;20582;-75
2021/07/31 15:51:25;;;;;;;4.77;4.40;;;;;;;;;;4991637;28;20695;-74
2021/07/31 15:54:11;;;;;;;5.33;3.97;;;;;;;;;;4991856;28;20241;-75
2021/07/31 15:56:55;;;;;;;4.23;3.17;;;;;;;;;;4990700;28;20226;-74
2021/07/31 15:59:40;;;;;;;3.20;2.90;;;;;;;;;;4991541;28;20293;-73
2021/07/31 16:02:25;;;;;;;3.80;3.30;;;;;;;;;;4990889;28;20465;-74
2021/07/31 16:05:10;;;;;;;3.70;3.40;;;;;;;;;;4991460;28;20811;-73
2021/07/31 16:07:55;;;;;;;4.03;3.07;;;;;;;;;;4990774;28;20206;-75
2021/07/31 16:10:41;;;;;;;4.67;4.23;;;;;;;;;;4991142;28;20615;-75
2021/07/31 16:13:26;;;;;;;3.43;3.20;;;;;;;;;;4991540;28;20214;-74
2021/07/31 16:16:15;;;;;;;3.43;3.17;;;;;;;;;;4990441;28;20255;-74
2021/07/31 16:19:00;;;;;;;3.40;3.20;;;;;;;;;;4991405;28;20209;-75
2021/07/31 16:21:45;;;;;;;3.90;3.60;;;;;;;;;;4991260;28;20704;-75
2021/07/31 16:24:30;;;;;;;3.80;3.10;;;;;;;;;;4995589;28;20230;-74
2021/07/31 16:27:16;;;;;;;3.60;3.30;;;;;;;;;;4997219;28;20278;-75
2021/07/31 16:30:01;;;;;;;4.07;3.20;;;;;;;;;;4997832;28;20214;-74
2021/07/31 16:32:45;;;;;;;4.00;3.67;;;;;;;;;;4997488;28;20203;-75
2021/07/31 16:35:30;;;;;;;3.10;2.90;;;;;;;;;;4997633;28;20547;-75
2021/07/31 16:38:15;;;;;;;3.80;3.50;;;;;;;;;;4997424;28;20792;-74
2021/07/31 16:41:00;;;;;;;3.63;3.00;;;;;;;;;;4997680;28;20206;-75
2021/07/31 16:43:47;;;;;;;3.00;2.80;;;;;;;;;;4997603;28;20338;-75
2021/07/31 16:46:32;;;;;;;3.13;2.77;;;;;;;;;;4996890;28;20229;-75
2021/07/31 16:49:17;;;;;;;2.90;2.70;;;;;;;;;;4997665;28;20263;-75
2021/07/31 16:52:02;;;;;;;2.90;2.80;;;;;;;;;;4997629;28;20358;-74
2021/07/31 16:54:47;;;;;;;3.93;3.13;;;;;;;;;;4997623;28;20214;-75
2021/07/31 16:57:32;;;;;;;3.90;3.20;;;;;;;;;;4996497;28;20230;-74
2021/07/31 17:00:18;;;;;;;3.70;3.40;;;;;;;;;;4997863;28;20233;-74
2021/07/31 17:03:03;;;;;;;5.18;4.63;;;;;;;;;;4997489;28;20532;-74
2021/07/31 17:05:49;;;;;;;4.33;4.03;;;;;;;;;;4996489;28;20226;-75
2021/07/31 17:08:33;;;;;;;3.37;2.93;;;;;;;;;;4997604;28;20202;-75
2021/07/31 17:11:18;;;;;;;3.30;3.00;;;;;;;;;;4997692;28;20287;-74
2021/07/31 17:14:04;;;;;;;3.40;3.20;;;;;;;;;;4997585;28;20212;-75
2021/07/31 17:16:50;;;;;;;4.30;3.07;;;;;;;;;;4991521;23;20731;-78
2021/07/31 17:19:36;;;;;;;3.67;3.20;;;;;;;;;;4964276;29;20222;-79
2021/07/31 17:22:21;;;;;;;3.33;3.03;;;;;;;;;;4964367;29;20212;-79
2021/07/31 17:25:06;;;;;;;3.67;3.37;;;;;;;;;;4964592;28;20210;-78
2021/07/31 17:27:52;;;;;;;3.53;3.23;;;;;;;;;;4981207;28;20202;-78
2021/07/31 17:30:37;;;;;;;3.70;3.20;;;;;;;;;;4982046;28;20283;-79
2021/07/31 17:33:23;;;;;;;3.30;3.00;;;;;;;;;;4981779;28;20736;-78
2021/07/31 17:36:08;;;;;;;3.63;3.33;;;;;;;;;;4978168;28;20730;-78
2021/07/31 17:38:53;;;;;;;3.73;3.43;;;;;;;;;;4978614;28;20254;-79
2021/07/31 17:41:38;;;;;;;4.03;3.63;;;;;;;;;;4986081;28;20232;-78
2021/07/31 17:44:23;;;;;;;3.72;3.42;;;;;;;;;;4978729;28;20486;-79
2021/07/31 17:47:08;;;;;;;4.30;3.90;;;;;;;;;;4978587;28;20229;-79
2021/07/31 17:49:56;;;;;;;3.53;3.23;;;;;;;;;;4981888;28;20896;-78
2021/07/31 17:52:41;;;;;;;3.60;3.30;;;;;;;;;;4979316;28;20260;-78
2021/07/31 17:55:26;;;;;;;3.47;3.17;;;;;;;;;;4979354;28;20362;-77
2021/07/31 17:58:11;;;;;;;3.53;3.13;;;;;;;;;;4981092;28;20241;-78
2021/07/31 18:00:56;;;;;;;3.30;3.10;;;;;;;;;;4980253;28;20255;-78
2021/07/31 18:03:41;;;;;;;4.30;3.40;;;;;;;;;;4977881;28;20685;-78
2021/07/31 18:06:28;;;;;;;3.85;3.55;;;;;;;;;;4977686;28;20471;-78
2021/07/31 18:09:13;;;;;;;3.73;3.27;;;;;;;;;;4978777;28;20208;-78
2021/07/31 18:11:58;;;;;;;4.07;3.67;;;;;;;;;;4976405;28;20229;-76
2021/07/31 18:14:43;;;;;;;4.13;3.80;;;;;;;;;;4974291;28;20218;-77
2021/07/31 18:17:28;;;;;;;4.43;3.43;;;;;;;;;;4978330;28;20245;-77
2021/07/31 18:20:13;;;;;;;4.40;3.80;;;;;;;;;;4974231;28;20204;-80
2021/07/31 18:22:59;;;;;;;5.23;4.07;;;;;;;;;;4974707;28;20345;-76
2021/07/31 18:25:44;;;;;;;4.33;4.00;;;;;;;;;;4973553;28;20235;-76
2021/07/31 18:28:29;;;;;;;4.43;4.03;;;;;;;;;;4973824;28;20204;-76
2021/07/31 18:31:14;;;;;;;4.90;4.40;;;;;;;;;;4973786;28;20691;-77
2021/07/31 18:33:59;;;;;;;3.93;3.50;;;;;;;;;;4973452;28;20209;-77
2021/07/31 18:36:44;;;;;;;4.80;4.40;;;;;;;;;;4975228;28;20231;-77
2021/07/31 18:39:30;;;;;;;5.43;4.50;;;;;;;;;;4974355;28;20217;-78
2021/07/31 18:42:15;;;;;;;4.83;4.33;;;;;;;;;;4974965;28;20240;-77
2021/07/31 18:45:01;;;;;;;5.60;3.97;;;;;;;;;;4974068;28;21065;-76
2021/07/31 18:47:47;;;;;;;5.17;4.57;;;;;;;;;;4972096;28;20212;-77
2021/07/31 18:50:32;;;;;;;4.63;4.20;;;;;;;;;;4974007;28;20275;-77
2021/07/31 18:53:17;;;;;;;4.37;3.97;;;;;;;;;;4974048;28;20692;-78
2021/07/31 18:56:03;;;;;;;4.83;4.53;;;;;;;;;;4973167;28;20227;-77
2021/07/31 18:58:49;;;;;;;5.13;4.63;;;;;;;;;;4973582;28;20232;-77
2021/07/31 19:01:33;;;;;;;4.63;4.23;;;;;;;;;;4973501;28;20244;-76
2021/07/31 19:04:18;;;;;;;5.57;4.53;;;;;;;;;;4974134;28;20207;-77
2021/07/31 19:07:03;;;;;;;5.22;4.82;;;;;;;;;;4972319;28;20781;-78
2021/07/31 19:09:48;;;;;;;5.57;4.73;;;;;;;;;;4973722;28;20201;-77
2021/07/31 19:12:35;;;;;;;4.93;4.53;;;;;;;;;;4973952;28;20211;-77
2021/07/31 19:15:20;;;;;;;4.47;4.07;;;;;;;;;;4973552;28;20252;-78
2021/07/31 19:18:05;;;;;;;4.70;4.30;;;;;;;;;;4973196;28;20227;-77
2021/07/31 19:20:52;;;;;;;4.90;4.40;;;;;;;;;;4973808;28;20575;-76
2021/07/31 19:23:37;;;;;;;5.50;5.10;;;;;;;;;;4973386;28;20212;-77
2021/07/31 19:26:22;;;;;;;5.13;4.50;;;;;;;;;;4972342;28;20323;-78
2021/07/31 19:29:08;;;;;;;5.60;5.10;;;;;;;;;;4973061;28;20208;-78
2021/07/31 19:31:53;;;;;;;5.80;5.30;;;;;;;;;;4973175;28;20207;-77
2021/07/31 19:34:38;;;;;;;6.43;5.60;;;;;;;;;;4973035;28;20208;-78
2021/07/31 19:37:23;;;;;;;6.17;5.53;;;;;;;;;;4972253;28;20227;-77
2021/07/31 19:40:09;;;;;;;8.70;6.00;;;;;;;;;;4974415;28;20208;-77
2021/07/31 19:42:54;;;;;;;8.33;6.87;;;;;;;;;;4973325;28;20575;-78
2021/07/31 19:45:40;;;;;;;6.70;6.07;;;;;;;;;;4972892;28;20302;-76
2021/07/31 19:48:25;;;;;;;6.83;5.80;;;;;;;;;;4972894;28;20287;-76
2021/07/31 19:51:10;;;;;;;7.57;6.10;;;;;;;;;;4972744;28;20282;-77
2021/07/31 19:53:55;;;;;;;6.73;5.87;;;;;;;;;;4973014;28;20216;-77
2021/07/31 19:56:39;;;;;;;6.53;6.03;;;;;;;;;;4971644;28;20325;-77
2021/07/31 19:59:24;;;;;;;6.30;5.80;;;;;;;;;;4972463;28;20227;-78
